createdAt,value
2019-01-03T00:02:42.580Z,1.17
2019-01-03T00:05:43.712Z,0.83
2019-01-03T00:08:43.913Z,1.00
2019-01-03T00:11:43.844Z,1.30
2019-01-03T00:14:43.441Z,1.30
2019-01-03T00:17:43.025Z,1.30
2019-01-03T00:20:35.003Z,1.50
2019-01-03T00:23:35.301Z,2.30
2019-01-03T00:26:35.148Z,1.30
2019-01-03T00:29:34.497Z,1.70
2019-01-03T00:32:34.732Z,1.27
2019-01-03T00:35:34.969Z,1.63
2019-01-03T00:38:34.478Z,1.50
2019-01-03T00:41:34.689Z,1.10
2019-01-03T00:44:33.997Z,1.23
2019-01-03T00:47:33.492Z,1.50
2019-01-03T00:50:33.741Z,1.60
2019-01-03T00:53:34.060Z,1.17
2019-01-03T00:56:34.132Z,1.40
2019-01-03T00:59:35.596Z,1.63
2019-01-03T01:02:35.366Z,1.27
2019-01-03T01:05:34.792Z,1.63
2019-01-03T01:08:34.400Z,1.77
2019-01-03T01:11:34.053Z,1.73
2019-01-03T01:14:33.432Z,1.37
2019-01-03T01:17:33.226Z,1.53
2019-01-03T01:23:40.937Z,1.07
2019-01-03T01:26:46.204Z,2.03
2019-01-03T01:29:48.427Z,1.60
2019-01-03T01:32:48.088Z,1.20
2019-01-03T01:35:48.554Z,1.00
2019-01-03T01:38:36.772Z,1.20
2019-01-03T01:41:26.552Z,1.20
2019-01-03T01:44:32.471Z,1.57
2019-01-03T01:47:32.247Z,1.10
2019-01-03T01:50:38.708Z,1.63
2019-01-03T01:53:30.319Z,1.10
2019-01-03T01:56:30.048Z,1.37
2019-01-03T01:59:29.420Z,0.90
2019-01-03T02:02:29.652Z,1.10
2019-01-03T02:05:29.289Z,1.70
2019-01-03T02:08:22.028Z,1.20
2019-01-03T02:11:22.196Z,1.47
2019-01-03T02:14:22.013Z,1.97
2019-01-03T02:17:15.007Z,1.10
2019-01-03T02:20:14.902Z,1.83
2019-01-03T02:23:14.345Z,1.50
2019-01-03T02:26:14.613Z,1.20
2019-01-03T02:29:12.655Z,1.10
2019-01-03T02:32:19.811Z,1.67
2019-01-03T02:35:26.885Z,1.37
2019-01-03T02:38:27.343Z,1.83
2019-01-03T02:41:34.509Z,1.03
2019-01-03T02:44:41.659Z,1.77
2019-01-03T02:47:48.756Z,2.03
2019-01-03T02:50:56.065Z,1.10
2019-01-03T02:54:03.594Z,1.53
2019-01-03T02:57:10.664Z,1.47
2019-01-03T03:00:17.855Z,1.60
2019-01-03T03:03:25.018Z,1.37
2019-01-03T03:06:32.537Z,1.27
2019-01-03T03:09:39.699Z,1.27
2019-01-03T03:12:47.152Z,1.43
2019-01-03T03:15:54.204Z,1.90
2019-01-03T03:21:53.375Z,1.40
2019-01-03T03:24:53.618Z,1.60
2019-01-03T03:27:47.981Z,1.13
2019-01-03T03:30:54.116Z,1.63
2019-01-03T03:33:54.428Z,1.40
2019-01-03T03:36:48.123Z,1.43
2019-01-03T03:39:51.304Z,1.80
2019-01-03T03:42:51.573Z,2.00
2019-01-03T03:48:56.068Z,2.87
2019-01-03T03:51:55.385Z,2.10
2019-01-03T03:54:54.816Z,2.33
2019-01-03T03:57:54.390Z,2.60
2019-01-03T04:00:54.569Z,2.13
2019-01-03T04:03:54.818Z,2.57
2019-01-03T04:06:54.192Z,2.30
2019-01-03T04:09:53.757Z,3.80
2019-01-03T04:12:53.253Z,3.97
2019-01-03T04:15:52.668Z,2.73
2019-01-03T04:18:58.144Z,4.60
2019-01-03T04:21:57.717Z,3.77
2019-01-03T04:24:57.315Z,3.60
2019-01-03T04:27:56.901Z,3.30
2019-01-03T04:30:56.360Z,3.17
2019-01-03T04:33:56.733Z,3.50
2019-01-03T04:36:49.444Z,3.87
2019-01-03T04:39:49.681Z,3.80
2019-01-03T04:42:49.600Z,4.13
2019-01-03T04:52:07.622Z,5.63
2019-01-03T04:55:07.801Z,5.70
2019-01-03T04:58:07.136Z,4.10
2019-01-03T05:01:05.695Z,5.37
2019-01-03T05:04:03.028Z,5.20
2019-01-03T05:07:05.876Z,6.50
2019-01-03T05:10:06.378Z,6.80
2019-01-03T05:13:06.193Z,7.00
2019-01-03T05:16:12.561Z,6.50
2019-01-03T05:19:12.033Z,6.17
2019-01-03T05:22:11.868Z,7.50
2019-01-03T05:25:12.041Z,6.60
2019-01-03T05:28:12.237Z,7.33
2019-01-03T05:31:12.411Z,7.33
2019-01-03T05:34:11.868Z,6.90
2019-01-03T05:37:09.076Z,6.97
2019-01-03T05:40:04.349Z,7.97
2019-01-03T05:43:04.580Z,9.30
2019-01-03T05:46:04.108Z,6.83
2019-01-03T05:49:02.168Z,9.80
2019-01-03T05:52:09.257Z,7.87
2019-01-03T05:55:16.308Z,8.80
2019-01-03T05:58:23.708Z,9.47
2019-01-03T06:01:30.989Z,9.37
2019-01-03T06:04:38.056Z,7.87
2019-01-03T06:07:45.465Z,9.90
2019-01-03T06:10:52.584Z,9.67
2019-01-03T06:13:59.737Z,11.97
2019-01-03T06:17:07.343Z,12.80
2019-01-03T06:20:14.418Z,12.13
2019-01-03T06:23:14.301Z,12.37
2019-01-03T06:26:14.005Z,13.70
2019-01-03T06:29:13.753Z,13.50
2019-01-03T06:32:06.211Z,11.30
2019-01-03T06:35:05.920Z,13.10
2019-01-03T06:37:58.572Z,11.97
2019-01-03T06:44:10.015Z,13.60
2019-01-03T06:47:09.980Z,12.93
2019-01-03T06:50:09.349Z,14.53
2019-01-03T06:53:07.735Z,13.70
2019-01-03T06:56:15.092Z,13.50
2019-01-03T06:59:22.197Z,12.00
2019-01-03T07:02:29.345Z,14.37
2019-01-03T07:05:36.426Z,12.53
2019-01-03T07:08:43.739Z,10.10
2019-01-03T07:11:51.051Z,15.17
2019-01-03T07:14:58.402Z,13.17
2019-01-03T07:18:05.479Z,13.10
2019-01-03T07:21:12.656Z,16.57
2019-01-03T07:24:20.060Z,15.43
2019-01-03T07:27:27.480Z,16.13
2019-01-03T07:30:34.572Z,15.97
2019-01-03T07:33:41.881Z,14.70
2019-01-03T07:36:49.052Z,17.10
2019-01-03T07:39:49.852Z,15.70
2019-01-03T07:42:57.416Z,14.40
2019-01-03T07:46:04.456Z,15.50
2019-01-03T07:49:11.893Z,16.33
2019-01-03T07:52:19.744Z,16.60
2019-01-03T07:55:26.925Z,16.27
2019-01-03T07:58:33.973Z,15.13
2019-01-03T08:01:41.280Z,17.23
2019-01-03T08:04:48.601Z,14.90
2019-01-03T08:07:55.776Z,15.13
2019-01-03T08:11:03.203Z,16.53
2019-01-03T08:14:10.600Z,14.13
2019-01-03T08:17:17.940Z,14.80
2019-01-03T08:20:25.332Z,14.63
2019-01-03T08:23:32.858Z,14.70
2019-01-03T08:26:41.399Z,14.40
2019-01-03T08:29:48.452Z,14.37
2019-01-03T08:32:55.777Z,15.17
2019-01-03T08:36:03.196Z,16.20
2019-01-03T08:39:10.732Z,15.40
2019-01-03T08:42:18.424Z,14.27
2019-01-03T08:45:25.857Z,14.20
2019-01-03T08:48:33.275Z,16.47
2019-01-03T08:51:33.575Z,14.53
2019-01-03T08:54:32.955Z,11.63
2019-01-03T08:57:35.208Z,12.70
2019-01-03T09:00:36.406Z,8.40
2019-01-03T09:03:42.981Z,10.30
2019-01-03T09:06:42.930Z,10.87
2019-01-03T09:09:42.428Z,11.10
2019-01-03T09:12:42.561Z,10.43
2019-01-03T09:15:42.884Z,10.33
2019-01-03T09:18:43.196Z,10.23
2019-01-03T09:21:42.671Z,8.30
2019-01-03T09:24:38.305Z,11.10
2019-01-03T09:27:37.819Z,10.03
2019-01-03T09:30:37.268Z,8.67
2019-01-03T09:33:36.844Z,8.47
2019-01-03T09:36:34.291Z,10.47
2019-01-03T09:39:34.044Z,9.63
2019-01-03T09:42:33.640Z,10.40
2019-01-03T09:45:14.252Z,10.47
2019-01-03T09:47:55.125Z,10.47
2019-01-03T09:50:35.701Z,10.37
2019-01-03T09:53:16.777Z,11.67
2019-01-03T09:55:57.367Z,9.37
2019-01-03T09:58:37.790Z,9.83
2019-01-03T10:01:18.560Z,10.27
2019-01-03T10:04:00.200Z,11.50
2019-01-03T10:06:41.468Z,9.70
2019-01-03T10:09:22.568Z,10.30
2019-01-03T10:12:03.832Z,10.83
2019-01-03T10:14:44.944Z,9.20
2019-01-03T10:17:25.890Z,8.90
2019-01-03T10:20:06.631Z,9.77
2019-01-03T10:22:48.132Z,11.47
2019-01-03T10:25:29.388Z,8.70
2019-01-03T10:28:10.800Z,9.90
2019-01-03T10:30:52.015Z,9.33
2019-01-03T10:33:33.088Z,9.70
2019-01-03T10:36:13.348Z,10.43
2019-01-03T10:38:54.340Z,9.70
2019-01-03T10:41:36.031Z,10.90
2019-01-03T10:44:17.060Z,8.70
2019-01-03T10:46:57.413Z,10.77
2019-01-03T10:49:38.100Z,9.73
2019-01-03T10:52:19.415Z,10.37
2019-01-03T10:55:00.668Z,11.13
2019-01-03T10:57:41.178Z,9.13
2019-01-03T11:00:21.899Z,9.70
2019-01-03T11:03:02.805Z,9.80
2019-01-03T11:05:43.508Z,10.90
2019-01-03T11:08:24.392Z,9.47
2019-01-03T11:11:05.861Z,11.00
2019-01-03T11:13:46.808Z,10.03
2019-01-03T11:16:27.248Z,9.83
2019-01-03T11:19:07.991Z,10.03
2019-01-03T11:21:49.032Z,10.83
2019-01-03T11:24:29.762Z,11.77
2019-01-03T11:27:10.542Z,10.27
2019-01-03T11:29:51.352Z,10.50
2019-01-03T11:32:32.343Z,10.37
2019-01-03T11:35:12.729Z,10.00
2019-01-03T11:37:54.032Z,9.90
2019-01-03T11:40:34.658Z,10.77
2019-01-03T11:43:15.495Z,10.10
2019-01-03T11:45:56.663Z,10.73
2019-01-03T11:48:36.907Z,10.20
2019-01-03T11:51:17.588Z,11.00
2019-01-03T11:53:58.024Z,10.23
2019-01-03T11:56:39.180Z,10.50
2019-01-03T11:59:20.508Z,9.93
2019-01-03T12:02:03.855Z,10.13
2019-01-03T12:04:45.332Z,9.23
2019-01-03T12:07:26.495Z,8.80
2019-01-03T12:10:07.371Z,10.00
2019-01-03T12:12:48.045Z,8.50
2019-01-03T12:15:28.600Z,9.60
2019-01-03T12:18:09.550Z,8.93
2019-01-03T12:20:49.983Z,8.03
2019-01-03T12:23:31.508Z,8.67
2019-01-03T12:26:12.491Z,7.43
2019-01-03T12:28:53.751Z,7.47
2019-01-03T12:31:34.579Z,7.33
2019-01-03T12:34:15.639Z,6.73
2019-01-03T12:36:56.448Z,6.20
2019-01-03T12:39:37.419Z,6.50
2019-01-03T12:42:18.627Z,6.10
2019-01-03T12:44:59.407Z,5.97
2019-01-03T12:47:40.348Z,6.80
2019-01-03T12:50:20.564Z,6.53
2019-01-03T12:53:01.332Z,6.10
2019-01-03T12:55:42.716Z,5.13
2019-01-03T12:58:23.069Z,5.77
2019-01-03T13:01:05.992Z,6.20
2019-01-03T13:03:46.632Z,5.90
2019-01-03T13:06:27.413Z,5.00
2019-01-03T13:12:06.393Z,4.60
2019-01-03T13:14:47.444Z,4.50
2019-01-03T13:17:28.568Z,4.17
2019-01-03T13:20:09.639Z,4.20
2019-01-03T13:22:50.720Z,4.73
2019-01-03T13:25:32.255Z,4.00
2019-01-03T13:28:13.958Z,4.77
2019-01-03T13:30:55.107Z,4.60
2019-01-03T13:33:35.888Z,5.87
2019-01-03T13:36:17.183Z,3.90
2019-01-03T13:38:57.706Z,5.00
2019-01-03T13:41:38.752Z,5.17
2019-01-03T13:44:19.378Z,5.47
2019-01-03T13:47:00.746Z,5.70
2019-01-03T13:49:41.521Z,5.67
2019-01-03T13:52:22.484Z,5.63
2019-01-03T13:55:03.796Z,5.10
2019-01-03T13:57:45.812Z,5.43
2019-01-03T14:00:26.865Z,4.60
2019-01-03T14:03:07.997Z,5.73
2019-01-03T14:05:48.698Z,5.50
2019-01-03T14:08:29.930Z,5.60
2019-01-03T14:11:09.413Z,5.57
2019-01-03T14:13:57.687Z,5.87
2019-01-03T14:16:46.271Z,6.20
2019-01-03T14:19:34.368Z,5.30
2019-01-03T14:22:22.401Z,6.30
2019-01-03T14:25:10.416Z,4.80
2019-01-03T14:27:58.964Z,5.80
2019-01-03T14:30:47.648Z,5.63
2019-01-03T14:33:35.657Z,6.40
2019-01-03T14:36:23.936Z,5.80
2019-01-03T14:39:12.644Z,6.93
2019-01-03T14:44:55.428Z,7.60
2019-01-03T14:47:43.559Z,6.07
2019-01-03T14:50:31.907Z,6.47
2019-01-03T14:53:19.916Z,6.23
2019-01-03T14:56:07.948Z,6.13
2019-01-03T15:01:51.053Z,5.87
2019-01-03T15:04:39.719Z,5.63
2019-01-03T15:07:27.701Z,5.70
2019-01-03T15:10:15.967Z,6.93
2019-01-03T15:12:56.672Z,5.90
2019-01-03T15:15:37.455Z,5.93
2019-01-03T15:18:18.040Z,6.63
2019-01-03T15:20:59.476Z,6.23
2019-01-03T15:23:40.292Z,6.43
2019-01-03T15:26:21.504Z,6.47
2019-01-03T15:29:01.871Z,5.90
2019-01-03T15:31:42.816Z,6.87
2019-01-03T15:34:23.710Z,6.87
2019-01-03T15:37:06.182Z,6.50
2019-01-03T15:39:46.987Z,6.53
2019-01-03T15:42:27.750Z,6.90
2019-01-03T15:45:08.540Z,7.90
2019-01-03T15:47:49.371Z,8.50
2019-01-03T15:50:29.740Z,8.80
2019-01-03T15:53:10.684Z,7.70
2019-01-03T15:55:51.804Z,8.30
2019-01-03T15:58:32.255Z,6.53
2019-01-03T16:01:13.384Z,5.93
2019-01-03T16:03:55.201Z,7.23
2019-01-03T16:06:36.360Z,7.93
2019-01-03T16:09:17.472Z,5.87
2019-01-03T16:11:58.332Z,6.77
2019-01-03T16:14:39.708Z,6.20
2019-01-03T16:17:20.745Z,6.80
2019-01-03T16:20:03.953Z,5.17
2019-01-03T16:22:45.059Z,5.40
2019-01-03T16:25:26.077Z,5.53
2019-01-03T16:28:07.218Z,4.70
2019-01-03T16:30:48.173Z,5.70
2019-01-03T16:33:28.840Z,5.47
2019-01-03T16:36:10.048Z,7.07
2019-01-03T16:38:50.417Z,6.00
2019-01-03T16:41:31.119Z,5.50
2019-01-03T16:44:11.944Z,6.57
2019-01-03T16:46:52.573Z,6.73
2019-01-03T16:49:33.733Z,6.10
2019-01-03T16:52:14.917Z,6.53
2019-01-03T16:54:55.512Z,6.80
2019-01-03T16:57:36.735Z,6.40
2019-01-03T17:00:18.124Z,7.00
2019-01-03T17:02:59.084Z,6.27
2019-01-03T17:05:38.676Z,6.30
2019-01-03T17:08:27.088Z,5.50
2019-01-03T17:11:15.699Z,5.47
2019-01-03T17:14:04.163Z,6.13
2019-01-03T17:16:52.569Z,6.20
2019-01-03T17:22:34.731Z,6.43
2019-01-03T17:25:23.119Z,5.93
2019-01-03T17:28:11.688Z,6.97
2019-01-03T17:31:00.172Z,6.90
2019-01-03T17:33:48.699Z,6.90
2019-01-03T17:39:32.372Z,7.47
2019-01-03T17:42:21.016Z,7.63
2019-01-03T17:45:09.544Z,7.03
2019-01-03T17:47:57.924Z,6.17
2019-01-03T17:50:46.017Z,5.97
2019-01-03T17:53:34.029Z,6.77
2019-01-03T17:56:22.155Z,7.10
2019-01-03T17:59:10.463Z,6.57
2019-01-03T18:01:59.424Z,7.50
2019-01-03T18:04:48.244Z,6.23
2019-01-03T18:07:29.184Z,6.43
2019-01-03T18:10:10.163Z,6.83
2019-01-03T18:12:51.155Z,7.37
2019-01-03T18:15:31.873Z,5.57
2019-01-03T18:18:13.329Z,7.10
2019-01-03T18:20:54.865Z,7.27
2019-01-03T18:23:35.645Z,6.30
2019-01-03T18:26:16.172Z,5.87
2019-01-03T18:28:57.588Z,6.37
2019-01-03T18:31:39.147Z,6.13
2019-01-03T18:34:20.913Z,6.10
2019-01-03T18:37:01.931Z,5.03
2019-01-03T18:39:43.965Z,7.70
2019-01-03T18:42:25.139Z,6.70
2019-01-03T18:45:05.792Z,6.97
2019-01-03T18:47:46.520Z,5.57
2019-01-03T18:50:27.556Z,6.30
2019-01-03T18:53:07.999Z,5.37
2019-01-03T18:55:48.707Z,6.07
2019-01-03T18:58:29.353Z,6.83
2019-01-03T19:01:10.394Z,6.37
2019-01-03T19:03:51.004Z,6.43
2019-01-03T19:06:32.069Z,5.00
2019-01-03T19:09:13.275Z,5.80
2019-01-03T19:11:54.835Z,6.90
2019-01-03T19:14:35.748Z,5.53
2019-01-03T19:17:16.384Z,6.20
2019-01-03T19:19:57.815Z,4.97
2019-01-03T19:22:38.953Z,6.70
2019-01-03T19:25:19.608Z,15.17
2019-01-03T19:27:59.920Z,8.63
2019-01-03T19:30:41.045Z,31.23
2019-01-03T19:33:22.212Z,31.13
2019-01-03T19:36:03.292Z,8.87
2019-01-03T19:38:44.490Z,45.37
2019-01-03T19:41:25.068Z,7.80
2019-01-03T19:44:06.303Z,9.50
2019-01-03T19:46:47.479Z,10.20
2019-01-03T19:49:27.963Z,8.13
2019-01-03T19:52:09.737Z,8.23
2019-01-03T19:54:50.946Z,7.60
2019-01-03T19:57:32.188Z,8.47
2019-01-03T20:00:13.895Z,10.37
2019-01-03T20:02:54.380Z,9.10
2019-01-03T20:05:35.157Z,10.57
2019-01-03T20:08:16.193Z,13.80
2019-01-03T20:10:57.629Z,16.73
2019-01-03T20:13:38.772Z,7.83
2019-01-03T20:16:20.001Z,6.83
2019-01-03T20:19:03.647Z,6.97
2019-01-03T20:21:45.024Z,6.17
2019-01-03T20:24:24.315Z,8.30
2019-01-03T20:27:12.660Z,7.43
2019-01-03T20:32:55.441Z,7.50
2019-01-03T20:35:43.527Z,6.50
2019-01-03T20:38:31.642Z,7.90
2019-01-03T20:41:19.622Z,7.87
2019-01-03T20:44:07.704Z,6.50
2019-01-03T20:46:55.841Z,6.53
2019-01-03T20:52:38.308Z,8.00
2019-01-03T20:55:26.803Z,8.57
2019-01-03T20:58:15.048Z,9.27
2019-01-03T21:03:56.553Z,8.10
2019-01-03T21:06:44.939Z,8.80
2019-01-03T21:09:33.078Z,8.93
2019-01-03T21:12:21.351Z,8.60
2019-01-03T21:15:10.711Z,8.17
2019-01-03T21:17:59.236Z,8.70
2019-01-03T21:20:47.264Z,7.10
2019-01-03T21:23:35.648Z,7.90
2019-01-03T21:26:17.032Z,7.17
2019-01-03T21:28:57.597Z,8.00
2019-01-03T21:31:38.516Z,8.07
2019-01-03T21:34:19.255Z,5.93
2019-01-03T21:37:00.480Z,5.80
2019-01-03T21:39:41.312Z,5.00
2019-01-03T21:42:22.756Z,6.00
2019-01-03T21:45:03.153Z,6.00
2019-01-03T21:47:44.366Z,6.63
2019-01-03T21:50:25.605Z,5.47
2019-01-03T21:53:06.624Z,5.67
2019-01-03T21:55:48.599Z,6.97
2019-01-03T21:58:29.796Z,6.40
2019-01-03T22:01:10.740Z,5.33
2019-01-03T22:03:51.796Z,5.93
2019-01-03T22:06:33.681Z,6.60
2019-01-03T22:09:14.285Z,5.23
2019-01-03T22:11:55.048Z,6.47
2019-01-03T22:14:35.809Z,6.90
2019-01-03T22:17:16.176Z,6.40
2019-01-03T22:19:57.048Z,5.20
2019-01-03T22:22:37.375Z,5.87
2019-01-03T22:25:18.359Z,4.70
2019-01-03T22:27:59.628Z,5.57
2019-01-03T22:30:40.836Z,4.87
2019-01-03T22:33:21.752Z,4.93
2019-01-03T22:36:02.710Z,5.37
2019-01-03T22:38:43.460Z,4.13
2019-01-03T22:41:24.393Z,4.13
2019-01-03T22:44:05.424Z,4.60
2019-01-03T22:46:46.448Z,4.57
2019-01-03T22:49:27.224Z,4.33
2019-01-03T22:52:08.680Z,4.90
2019-01-03T22:54:49.254Z,5.47
2019-01-03T22:57:30.516Z,5.23
2019-01-03T23:00:11.544Z,4.90
2019-01-03T23:02:52.029Z,5.00
2019-01-03T23:05:32.387Z,4.87
2019-01-03T23:08:13.540Z,4.60
2019-01-03T23:10:54.687Z,4.83
2019-01-03T23:13:35.540Z,4.70
2019-01-03T23:16:16.620Z,4.97
2019-01-03T23:18:57.345Z,3.90
2019-01-03T23:21:37.940Z,5.30
2019-01-03T23:24:19.580Z,5.00
2019-01-03T23:27:01.476Z,5.07
2019-01-03T23:29:42.889Z,4.47
2019-01-03T23:32:23.996Z,4.60
2019-01-03T23:35:05.111Z,5.83
2019-01-03T23:37:46.296Z,5.13
2019-01-03T23:40:27.872Z,5.10
2019-01-03T23:43:08.503Z,4.67
2019-01-03T23:45:48.790Z,5.27
2019-01-03T23:48:29.829Z,4.90
2019-01-03T23:51:10.421Z,4.60
2019-01-03T23:53:50.907Z,5.27
2019-01-03T23:56:31.775Z,4.97
2019-01-03T23:59:13.352Z,6.57
